createdAt,value
2019-03-27T00:00:08.826Z,6.37
2019-03-27T00:02:37.062Z,6.80
2019-03-27T00:05:05.375Z,6.65
2019-03-27T00:07:33.602Z,7.15
2019-03-27T00:10:01.853Z,7.50
2019-03-27T00:12:31.354Z,8.05
2019-03-27T00:15:12.192Z,7.35
2019-03-27T00:17:31.851Z,8.10
2019-03-27T00:20:00.162Z,8.00
2019-03-27T00:22:28.607Z,8.73
2019-03-27T00:24:56.855Z,7.95
2019-03-27T00:27:25.435Z,8.98
2019-03-27T00:29:53.694Z,9.48
2019-03-27T00:32:21.962Z,9.30
2019-03-27T00:34:50.253Z,9.93
2019-03-27T00:37:18.498Z,9.15
2019-03-27T00:39:46.744Z,9.35
2019-03-27T00:42:15.146Z,9.23
2019-03-27T00:44:43.409Z,10.30
2019-03-27T00:47:11.634Z,9.18
2019-03-27T00:49:40.169Z,9.55
2019-03-27T00:52:08.416Z,8.85
2019-03-27T00:54:36.658Z,8.88
2019-03-27T00:57:04.901Z,9.65
2019-03-27T00:59:33.526Z,9.58
2019-03-27T01:02:02.192Z,9.88
2019-03-27T01:04:30.776Z,9.55
2019-03-27T01:06:59.274Z,9.93
2019-03-27T01:09:28.435Z,10.05
2019-03-27T01:11:56.951Z,10.10
2019-03-27T01:14:25.265Z,10.20
2019-03-27T01:16:55.299Z,9.55
2019-03-27T01:19:23.547Z,9.45
2019-03-27T01:21:52.690Z,10.05
2019-03-27T01:24:21.223Z,9.83
2019-03-27T01:26:49.452Z,9.43
2019-03-27T01:29:17.946Z,10.10
2019-03-27T01:31:46.467Z,10.13
2019-03-27T01:34:14.723Z,10.82
2019-03-27T01:36:43.235Z,11.28
2019-03-27T01:39:11.475Z,11.78
2019-03-27T01:41:39.722Z,10.80
2019-03-27T01:44:08.970Z,11.15
2019-03-27T01:46:37.475Z,10.25
2019-03-27T01:49:05.710Z,10.48
2019-03-27T01:51:34.259Z,11.25
2019-03-27T01:54:02.506Z,11.73
2019-03-27T01:56:30.756Z,10.88
2019-03-27T01:58:58.995Z,11.28
2019-03-27T02:01:27.579Z,11.55
2019-03-27T02:03:55.819Z,10.80
2019-03-27T02:06:24.073Z,11.50
2019-03-27T02:08:52.313Z,12.47
2019-03-27T02:11:20.571Z,11.75
2019-03-27T02:13:48.813Z,11.57
2019-03-27T02:16:17.361Z,11.45
2019-03-27T02:18:45.607Z,12.75
2019-03-27T02:21:14.129Z,12.55
2019-03-27T02:23:43.292Z,11.53
2019-03-27T02:26:11.543Z,12.10
2019-03-27T02:28:40.096Z,11.68
2019-03-27T02:31:08.687Z,12.73
2019-03-27T02:33:36.941Z,12.55
2019-03-27T02:36:06.301Z,12.20
2019-03-27T02:38:34.675Z,12.15
2019-03-27T02:41:03.368Z,11.78
2019-03-27T02:43:31.676Z,13.00
2019-03-27T02:45:59.936Z,13.90
2019-03-27T02:48:28.176Z,12.20
2019-03-27T02:50:56.432Z,13.48
2019-03-27T02:53:24.668Z,12.47
2019-03-27T02:55:52.936Z,12.85
2019-03-27T02:58:21.253Z,12.63
2019-03-27T03:00:49.512Z,11.95
2019-03-27T03:03:17.754Z,12.28
2019-03-27T03:05:46.004Z,12.60
2019-03-27T03:08:14.249Z,12.53
2019-03-27T03:10:45.503Z,13.85
2019-03-27T03:13:13.045Z,12.35
2019-03-27T03:15:41.630Z,12.60
2019-03-27T03:18:09.895Z,13.60
2019-03-27T03:20:38.136Z,13.98
2019-03-27T03:23:07.364Z,14.93
2019-03-27T03:25:35.611Z,15.53
2019-03-27T03:28:04.844Z,16.97
2019-03-27T03:30:33.375Z,15.50
2019-03-27T03:33:01.699Z,16.75
2019-03-27T03:35:30.333Z,17.42
2019-03-27T03:37:59.490Z,17.45
2019-03-27T03:40:27.813Z,18.52
2019-03-27T03:42:56.167Z,18.12
2019-03-27T03:45:24.479Z,19.07
2019-03-27T03:47:52.734Z,20.08
2019-03-27T03:50:39.839Z,20.10
2019-03-27T03:53:11.920Z,19.62
2019-03-27T03:55:40.747Z,20.82
2019-03-27T03:58:11.287Z,24.85
2019-03-27T04:00:39.684Z,25.02
2019-03-27T04:03:07.931Z,24.72
2019-03-27T04:05:36.514Z,24.30
2019-03-27T04:08:05.836Z,21.95
2019-03-27T04:10:34.080Z,23.25
2019-03-27T04:13:02.335Z,24.02
2019-03-27T04:15:30.858Z,23.38
2019-03-27T04:17:59.117Z,23.00
2019-03-27T04:20:27.357Z,22.87
2019-03-27T04:22:56.596Z,23.00
2019-03-27T04:25:24.848Z,21.42
2019-03-27T04:27:53.102Z,22.22
2019-03-27T04:30:21.344Z,22.60
2019-03-27T04:32:49.587Z,22.77
2019-03-27T04:35:17.846Z,23.98
2019-03-27T04:37:48.256Z,24.15
2019-03-27T04:40:16.841Z,22.77
2019-03-27T04:42:46.424Z,25.72
2019-03-27T04:45:14.683Z,25.45
2019-03-27T04:47:43.964Z,26.55
2019-03-27T04:50:12.216Z,27.17
2019-03-27T04:52:40.481Z,25.95
2019-03-27T04:55:08.997Z,26.90
2019-03-27T04:57:37.567Z,27.70
2019-03-27T05:00:07.252Z,27.75
2019-03-27T05:02:35.880Z,27.65
2019-03-27T05:05:06.543Z,27.07
2019-03-27T05:07:35.771Z,28.32
2019-03-27T05:10:04.959Z,27.80
2019-03-27T05:12:33.211Z,26.95
2019-03-27T05:15:01.699Z,29.18
2019-03-27T05:17:29.955Z,28.50
2019-03-27T05:19:58.564Z,28.87
2019-03-27T05:22:26.823Z,28.55
2019-03-27T05:24:55.063Z,29.77
2019-03-27T05:27:23.317Z,30.68
2019-03-27T05:29:51.547Z,29.57
2019-03-27T05:32:19.813Z,31.10
2019-03-27T05:34:48.051Z,34.83
2019-03-27T05:37:16.293Z,33.90
2019-03-27T05:39:44.545Z,31.50
2019-03-27T05:42:12.788Z,33.23
2019-03-27T05:44:41.957Z,34.55
2019-03-27T05:47:10.190Z,36.25
2019-03-27T05:49:38.448Z,32.85
2019-03-27T05:52:06.691Z,34.95
2019-03-27T05:54:34.940Z,34.98
2019-03-27T05:57:03.468Z,35.15
2019-03-27T05:59:31.734Z,36.03
2019-03-27T06:01:59.976Z,36.33
2019-03-27T06:04:28.227Z,35.73
2019-03-27T06:06:56.476Z,36.93
2019-03-27T06:09:25.087Z,35.55
2019-03-27T06:11:53.580Z,37.85
2019-03-27T06:14:22.148Z,40.55
2019-03-27T06:16:50.856Z,41.83
2019-03-27T06:19:19.427Z,53.28
2019-03-27T06:21:48.012Z,42.10
2019-03-27T06:24:16.326Z,45.88
2019-03-27T06:26:44.583Z,41.35
2019-03-27T06:29:15.871Z,46.37
2019-03-27T06:31:43.772Z,42.58
2019-03-27T06:34:12.285Z,36.77
2019-03-27T06:36:40.531Z,37.83
2019-03-27T06:39:09.053Z,38.98
2019-03-27T06:41:37.309Z,40.43
2019-03-27T06:44:05.556Z,38.73
2019-03-27T06:46:34.097Z,38.10
2019-03-27T06:49:02.375Z,38.17
2019-03-27T06:51:39.821Z,38.08
2019-03-27T06:54:02.655Z,36.60
2019-03-27T06:56:31.287Z,38.73
2019-03-27T06:58:59.628Z,37.08
2019-03-27T07:01:28.186Z,38.88
2019-03-27T07:04:09.586Z,37.08
2019-03-27T07:06:27.095Z,38.28
2019-03-27T07:08:55.339Z,38.65
2019-03-27T07:11:25.597Z,39.10
2019-03-27T07:13:53.916Z,39.05
2019-03-27T07:16:22.471Z,38.95
2019-03-27T07:18:51.061Z,42.08
2019-03-27T07:21:19.644Z,38.67
2019-03-27T07:23:48.279Z,37.80
2019-03-27T07:26:16.597Z,37.95
2019-03-27T07:28:45.103Z,36.25
2019-03-27T07:31:13.687Z,38.55
2019-03-27T07:33:41.976Z,36.42
2019-03-27T07:36:10.223Z,39.30
2019-03-27T07:38:38.739Z,36.35
2019-03-27T07:41:08.247Z,40.88
2019-03-27T07:43:36.833Z,38.70
2019-03-27T07:46:05.431Z,36.45
2019-03-27T07:48:34.024Z,35.75
2019-03-27T07:51:02.599Z,37.17
2019-03-27T07:53:31.031Z,36.33
2019-03-27T07:55:59.267Z,37.78
2019-03-27T07:58:27.519Z,34.48
2019-03-27T08:00:55.752Z,34.45
2019-03-27T08:03:25.248Z,35.00
2019-03-27T08:05:53.493Z,33.18
2019-03-27T08:08:21.743Z,32.78
2019-03-27T08:10:49.989Z,34.63
2019-03-27T08:13:19.140Z,34.20
2019-03-27T08:15:47.390Z,34.90
2019-03-27T08:18:15.649Z,33.58
2019-03-27T08:20:45.444Z,34.90
2019-03-27T08:23:14.031Z,34.13
2019-03-27T08:25:42.652Z,33.30
2019-03-27T08:28:11.208Z,32.60
2019-03-27T08:30:39.796Z,32.85
2019-03-27T08:33:08.039Z,31.02
2019-03-27T08:35:36.292Z,28.87
2019-03-27T08:38:04.535Z,28.12
2019-03-27T08:40:33.128Z,28.73
2019-03-27T08:43:01.712Z,28.62
2019-03-27T08:45:30.303Z,26.00
2019-03-27T08:47:58.891Z,27.35
2019-03-27T08:50:28.065Z,26.25
2019-03-27T08:52:56.316Z,26.42
2019-03-27T08:55:24.849Z,26.60
2019-03-27T08:57:53.098Z,27.65
2019-03-27T09:00:27.421Z,24.67
2019-03-27T09:02:55.668Z,23.42
2019-03-27T09:05:23.913Z,24.20
2019-03-27T09:07:52.172Z,25.12
2019-03-27T09:10:20.408Z,22.15
2019-03-27T09:12:48.699Z,22.55
2019-03-27T09:15:16.970Z,22.07
2019-03-27T09:17:45.224Z,22.10
2019-03-27T09:20:13.800Z,21.60
2019-03-27T09:22:42.387Z,21.25
2019-03-27T09:25:10.628Z,21.82
2019-03-27T09:27:39.156Z,20.62
2019-03-27T09:30:10.825Z,20.25
2019-03-27T09:32:39.422Z,19.10
2019-03-27T09:35:07.655Z,18.92
2019-03-27T09:37:35.908Z,17.90
2019-03-27T09:40:05.183Z,17.55
2019-03-27T09:42:33.753Z,18.85
2019-03-27T09:45:01.988Z,16.82
2019-03-27T09:47:30.255Z,16.65
2019-03-27T09:49:58.518Z,15.50
2019-03-27T09:52:26.763Z,14.43
2019-03-27T09:54:55.012Z,15.93
2019-03-27T09:57:23.260Z,14.60
2019-03-27T09:59:51.539Z,15.10
2019-03-27T10:02:19.846Z,15.30
2019-03-27T10:04:48.981Z,15.80
2019-03-27T10:07:17.589Z,15.10
2019-03-27T10:09:50.105Z,13.78
2019-03-27T10:12:16.725Z,13.05
2019-03-27T10:14:47.564Z,12.98
2019-03-27T10:17:14.964Z,13.35
2019-03-27T10:19:43.223Z,12.95
2019-03-27T10:22:11.772Z,11.78
2019-03-27T10:24:40.356Z,11.88
2019-03-27T10:27:08.619Z,11.22
2019-03-27T10:29:37.223Z,10.53
2019-03-27T10:32:05.815Z,9.80
2019-03-27T10:34:34.055Z,9.68
2019-03-27T10:37:02.310Z,10.75
2019-03-27T10:39:30.804Z,10.50
2019-03-27T10:41:59.055Z,9.85
2019-03-27T10:44:27.295Z,9.95
2019-03-27T10:46:55.552Z,9.40
2019-03-27T10:49:24.088Z,8.68
2019-03-27T10:51:52.340Z,8.95
2019-03-27T10:54:20.577Z,9.00
2019-03-27T10:56:49.133Z,8.63
2019-03-27T10:59:17.718Z,8.28
2019-03-27T11:01:45.971Z,8.25
2019-03-27T11:04:14.496Z,8.05
2019-03-27T11:06:43.072Z,7.33
2019-03-27T11:09:11.663Z,7.67
2019-03-27T11:11:40.252Z,8.00
2019-03-27T11:14:08.839Z,7.90
2019-03-27T11:16:37.335Z,7.33
2019-03-27T11:19:05.913Z,6.87
2019-03-27T11:21:34.169Z,7.50
2019-03-27T11:24:02.694Z,6.92
2019-03-27T11:26:30.956Z,6.95
2019-03-27T11:28:59.205Z,7.00
2019-03-27T11:31:27.728Z,7.08
2019-03-27T11:33:56.006Z,6.55
2019-03-27T11:36:24.324Z,7.08
2019-03-27T11:38:53.904Z,6.87
2019-03-27T11:41:23.059Z,7.22
2019-03-27T11:43:55.041Z,6.00
2019-03-27T11:46:22.186Z,6.10
2019-03-27T11:48:50.444Z,7.75
2019-03-27T11:51:18.984Z,6.85
2019-03-27T11:53:48.407Z,6.00
2019-03-27T11:56:18.921Z,6.40
2019-03-27T11:58:48.428Z,6.28
2019-03-27T12:01:16.683Z,6.60
2019-03-27T12:03:44.928Z,6.08
2019-03-27T12:06:13.192Z,6.65
2019-03-27T12:08:41.519Z,6.28
2019-03-27T12:11:09.755Z,6.85
2019-03-27T12:13:38.311Z,6.83
2019-03-27T12:16:06.563Z,6.58
2019-03-27T12:18:35.083Z,6.55
2019-03-27T12:21:03.676Z,6.58
2019-03-27T12:23:32.263Z,6.92
2019-03-27T12:26:00.512Z,6.80
2019-03-27T12:28:28.821Z,6.60
2019-03-27T12:30:57.449Z,6.25
2019-03-27T12:33:26.102Z,5.25
2019-03-27T12:35:54.686Z,5.00
2019-03-27T12:38:22.933Z,5.35
2019-03-27T12:40:51.179Z,4.72
2019-03-27T12:43:19.752Z,5.37
2019-03-27T12:45:48.319Z,4.80
2019-03-27T12:48:16.571Z,5.33
2019-03-27T12:50:45.101Z,5.08
2019-03-27T12:53:13.675Z,5.30
2019-03-27T12:55:41.943Z,5.10
2019-03-27T12:58:11.902Z,5.08
2019-03-27T13:00:40.277Z,5.03
2019-03-27T13:03:08.525Z,5.15
2019-03-27T13:05:37.140Z,5.97
2019-03-27T13:08:05.413Z,5.55
2019-03-27T13:10:33.672Z,5.40
2019-03-27T13:13:01.927Z,5.40
2019-03-27T13:15:30.187Z,4.70
2019-03-27T13:17:58.740Z,5.55
2019-03-27T13:20:26.978Z,4.95
2019-03-27T13:22:55.527Z,4.87
2019-03-27T13:25:24.112Z,4.55
2019-03-27T13:27:52.361Z,4.78
2019-03-27T13:30:20.773Z,4.03
2019-03-27T13:32:49.335Z,4.72
2019-03-27T13:35:17.930Z,4.10
2019-03-27T13:37:46.183Z,4.55
2019-03-27T13:40:14.428Z,4.28
2019-03-27T13:42:42.696Z,4.30
2019-03-27T13:45:10.931Z,4.37
2019-03-27T13:47:39.549Z,4.37
2019-03-27T13:50:13.239Z,4.22
2019-03-27T13:52:41.733Z,4.37
2019-03-27T13:55:10.047Z,3.85
2019-03-27T13:57:38.303Z,3.30
2019-03-27T14:00:08.528Z,3.70
2019-03-27T14:02:36.841Z,4.20
2019-03-27T14:05:05.945Z,3.90
2019-03-27T14:07:34.481Z,3.90
2019-03-27T14:10:02.713Z,3.92
2019-03-27T14:12:31.248Z,3.95
2019-03-27T14:14:59.490Z,3.67
2019-03-27T14:17:27.755Z,4.08
2019-03-27T14:19:56.963Z,3.77
2019-03-27T14:22:25.232Z,3.50
2019-03-27T14:24:53.772Z,3.70
2019-03-27T14:27:22.360Z,3.90
2019-03-27T14:29:50.609Z,4.28
2019-03-27T14:32:18.865Z,4.12
2019-03-27T14:34:47.404Z,3.67
2019-03-27T14:37:15.667Z,3.80
2019-03-27T14:39:43.899Z,3.77
2019-03-27T14:42:12.468Z,3.70
2019-03-27T14:44:41.051Z,3.50
2019-03-27T14:47:09.637Z,3.95
2019-03-27T14:49:38.221Z,4.10
2019-03-27T14:52:08.495Z,4.25
2019-03-27T14:54:36.440Z,4.75
2019-03-27T14:57:05.013Z,4.75
2019-03-27T14:59:33.595Z,4.65
2019-03-27T15:02:02.100Z,4.22
2019-03-27T15:04:30.674Z,5.12
2019-03-27T15:06:58.923Z,5.47
2019-03-27T15:09:27.435Z,4.60
2019-03-27T15:11:55.686Z,4.97
2019-03-27T15:14:23.933Z,4.30
2019-03-27T15:16:52.476Z,5.00
2019-03-27T15:19:20.736Z,5.30
2019-03-27T15:21:49.256Z,4.60
2019-03-27T15:24:20.453Z,4.60
2019-03-27T15:26:47.841Z,5.28
2019-03-27T15:29:16.092Z,5.37
2019-03-27T15:31:44.335Z,5.28
2019-03-27T15:34:12.587Z,5.28
2019-03-27T15:36:40.831Z,5.87
2019-03-27T15:39:09.093Z,6.22
2019-03-27T15:41:37.640Z,6.67
2019-03-27T15:44:06.247Z,7.10
2019-03-27T15:46:34.484Z,7.62
2019-03-27T15:49:02.749Z,8.25
2019-03-27T15:51:31.075Z,7.75
2019-03-27T15:53:59.315Z,8.15
2019-03-27T15:56:27.564Z,7.83
2019-03-27T15:58:56.448Z,8.53
2019-03-27T16:01:25.222Z,6.90
2019-03-27T16:03:53.807Z,7.35
2019-03-27T16:06:22.401Z,7.92
2019-03-27T16:08:50.659Z,7.72
2019-03-27T16:11:19.167Z,7.58
2019-03-27T16:13:47.427Z,7.47
2019-03-27T16:16:15.928Z,7.62
2019-03-27T16:18:44.187Z,7.30
2019-03-27T16:21:12.711Z,7.55
2019-03-27T16:23:40.972Z,7.15
2019-03-27T16:26:09.236Z,7.15
2019-03-27T16:28:37.496Z,7.30
2019-03-27T16:31:05.820Z,7.60
2019-03-27T16:33:34.315Z,7.40
2019-03-27T16:36:02.579Z,7.33
2019-03-27T16:38:30.844Z,8.73
2019-03-27T16:40:59.099Z,8.23
2019-03-27T16:43:27.728Z,8.20
2019-03-27T16:45:56.316Z,7.87
2019-03-27T16:48:24.578Z,8.50
2019-03-27T16:50:53.084Z,8.65
2019-03-27T16:53:21.667Z,7.83
2019-03-27T16:55:49.914Z,8.08
2019-03-27T16:58:18.443Z,8.78
2019-03-27T17:00:46.683Z,8.63
2019-03-27T17:03:14.934Z,8.85
2019-03-27T17:05:53.388Z,46.85
2019-03-27T17:08:13.194Z,9.73
2019-03-27T17:10:41.431Z,10.80
2019-03-27T17:13:10.683Z,12.28
2019-03-27T17:15:38.923Z,9.73
2019-03-27T17:18:07.183Z,9.98
2019-03-27T17:20:35.427Z,11.78
2019-03-27T17:23:17.050Z,10.65
2019-03-27T17:25:33.676Z,9.85
2019-03-27T17:28:02.307Z,10.48
2019-03-27T17:30:31.949Z,9.55
2019-03-27T17:33:00.612Z,10.80
2019-03-27T17:35:28.864Z,11.10
2019-03-27T17:37:57.483Z,11.30
2019-03-27T17:40:25.963Z,9.93
2019-03-27T17:42:54.230Z,10.40
2019-03-27T17:45:22.480Z,8.88
2019-03-27T17:47:50.719Z,9.03
2019-03-27T17:50:19.321Z,8.58
2019-03-27T17:52:47.611Z,9.10
2019-03-27T17:55:15.874Z,7.97
2019-03-27T17:57:44.443Z,8.13
2019-03-27T18:00:14.799Z,8.23
2019-03-27T18:02:43.047Z,8.48
2019-03-27T18:05:11.305Z,8.15
2019-03-27T18:07:39.547Z,9.00
2019-03-27T18:10:08.095Z,9.58
2019-03-27T18:12:36.337Z,10.08
2019-03-27T18:15:06.529Z,8.95
2019-03-27T18:17:34.771Z,8.08
2019-03-27T18:20:03.011Z,8.43
2019-03-27T18:22:31.255Z,7.92
2019-03-27T18:24:59.507Z,8.60
2019-03-27T18:27:28.020Z,8.63
2019-03-27T18:29:56.271Z,8.73
2019-03-27T18:32:24.500Z,8.10
2019-03-27T18:34:53.052Z,9.35
2019-03-27T18:37:21.319Z,9.43
2019-03-27T18:39:49.568Z,9.98
2019-03-27T18:42:18.095Z,8.88
2019-03-27T18:44:46.688Z,10.30
2019-03-27T18:47:15.272Z,10.10
2019-03-27T18:49:43.510Z,10.75
2019-03-27T18:52:12.012Z,11.43
2019-03-27T18:54:40.253Z,16.67
2019-03-27T18:57:08.514Z,47.95
2019-03-27T18:59:36.743Z,72.47
2019-03-27T19:02:05.274Z,28.32
2019-03-27T19:04:34.672Z,58.45
2019-03-27T19:07:02.939Z,133.50
2019-03-27T19:09:31.550Z,42.78
2019-03-27T19:11:59.799Z,61.60
2019-03-27T19:14:28.043Z,218.63
2019-03-27T19:16:56.307Z,167.13
2019-03-27T19:19:24.867Z,16.20
2019-03-27T19:21:54.061Z,104.55
2019-03-27T19:24:22.659Z,41.55
2019-03-27T19:26:50.909Z,24.63
2019-03-27T19:29:19.235Z,17.60
2019-03-27T19:31:47.476Z,14.53
2019-03-27T19:34:15.735Z,14.18
2019-03-27T19:36:44.363Z,14.90
2019-03-27T19:39:12.956Z,14.65
2019-03-27T19:41:41.267Z,15.85
2019-03-27T19:44:10.045Z,16.97
2019-03-27T19:46:38.365Z,19.15
2019-03-27T19:49:06.616Z,27.85
2019-03-27T19:51:34.851Z,28.57
2019-03-27T19:54:03.471Z,24.77
2019-03-27T19:56:32.067Z,27.42
2019-03-27T19:59:00.334Z,27.60
2019-03-27T20:01:29.015Z,28.27
2019-03-27T20:03:57.279Z,31.33
2019-03-27T20:06:25.828Z,62.50
2019-03-27T20:08:56.681Z,36.63
2019-03-27T20:11:24.545Z,78.80
2019-03-27T20:13:53.181Z,32.93
2019-03-27T20:16:21.453Z,27.45
2019-03-27T20:18:49.710Z,31.95
2019-03-27T20:21:17.952Z,33.25
2019-03-27T20:23:46.203Z,31.15
2019-03-27T20:26:14.447Z,31.82
2019-03-27T20:28:42.712Z,31.80
2019-03-27T20:31:10.947Z,29.45
2019-03-27T20:33:39.190Z,27.30
2019-03-27T20:36:07.716Z,27.35
2019-03-27T20:38:35.965Z,29.37
2019-03-27T20:41:04.211Z,28.75
2019-03-27T20:43:32.456Z,29.05
2019-03-27T20:46:00.712Z,30.85
2019-03-27T20:48:28.969Z,31.15
2019-03-27T20:50:57.501Z,30.10
2019-03-27T20:53:25.748Z,29.80
2019-03-27T20:55:54.004Z,31.65
2019-03-27T20:58:22.543Z,29.37
2019-03-27T21:00:51.133Z,31.15
2019-03-27T21:03:19.398Z,30.10
2019-03-27T21:05:47.896Z,33.75
2019-03-27T21:08:16.163Z,41.00
2019-03-27T21:10:44.402Z,38.95
2019-03-27T21:13:12.954Z,43.63
2019-03-27T21:15:41.550Z,46.18
2019-03-27T21:18:09.800Z,43.50
2019-03-27T21:20:38.067Z,39.85
2019-03-27T21:23:06.315Z,44.45
2019-03-27T21:25:34.995Z,61.98
2019-03-27T21:28:03.548Z,43.17
2019-03-27T21:30:32.143Z,33.75
2019-03-27T21:33:00.402Z,32.73
2019-03-27T21:35:29.024Z,34.70
2019-03-27T21:37:57.272Z,33.63
2019-03-27T21:40:25.884Z,60.23
2019-03-27T21:42:54.130Z,36.00
2019-03-27T21:45:22.383Z,34.20
2019-03-27T21:47:50.619Z,46.77
2019-03-27T21:50:19.199Z,36.20
2019-03-27T21:52:59.850Z,37.73
2019-03-27T21:55:22.863Z,48.95
2019-03-27T21:57:47.396Z,56.80
2019-03-27T22:00:18.987Z,51.05
2019-03-27T22:02:48.608Z,40.33
2019-03-27T22:05:16.875Z,39.03
2019-03-27T22:07:45.123Z,63.73
2019-03-27T22:10:13.640Z,45.45
2019-03-27T22:12:41.904Z,35.28
2019-03-27T22:15:10.155Z,35.88
2019-03-27T22:17:38.683Z,47.20
2019-03-27T22:20:07.472Z,39.15
2019-03-27T22:22:36.083Z,30.02
2019-03-27T22:25:06.792Z,26.15
2019-03-27T22:27:35.025Z,22.77
2019-03-27T22:30:04.317Z,23.30
2019-03-27T22:32:32.919Z,23.42
2019-03-27T22:35:01.212Z,23.35
2019-03-27T22:37:29.459Z,22.70
2019-03-27T22:39:58.025Z,21.82
2019-03-27T22:42:26.279Z,22.42
2019-03-27T22:44:54.523Z,21.68
2019-03-27T22:47:23.036Z,23.15
2019-03-27T22:49:51.355Z,22.52
2019-03-27T22:52:19.603Z,23.00
2019-03-27T22:54:47.848Z,22.55
2019-03-27T22:57:16.492Z,24.40
2019-03-27T22:59:45.083Z,24.25
2019-03-27T23:02:16.539Z,23.45
2019-03-27T23:04:44.788Z,24.85
2019-03-27T23:07:13.344Z,26.82
2019-03-27T23:09:41.917Z,25.90
2019-03-27T23:12:10.253Z,25.72
2019-03-27T23:14:38.600Z,26.12
2019-03-27T23:17:07.140Z,25.92
2019-03-27T23:19:35.636Z,26.95
2019-03-27T23:22:04.149Z,26.50
2019-03-27T23:24:32.459Z,26.82
2019-03-27T23:27:00.983Z,27.95
2019-03-27T23:29:29.569Z,29.30
2019-03-27T23:31:57.803Z,29.12
2019-03-27T23:34:26.333Z,29.75
2019-03-27T23:36:54.935Z,28.95
2019-03-27T23:39:24.097Z,28.50
2019-03-27T23:41:52.488Z,29.02
2019-03-27T23:44:21.096Z,31.77
2019-03-27T23:46:49.334Z,31.05
2019-03-27T23:49:17.863Z,29.75
2019-03-27T23:51:46.447Z,30.90
2019-03-27T23:54:14.714Z,32.05
2019-03-27T23:56:42.955Z,31.27
2019-03-27T23:59:11.199Z,30.32
